Aérodrome :
LOGIN :

S'inscrire | Disclaimer

   EN    FR    IT 

 










Légende :    VFR   VFR Marginal   IFR   IFR Intensif   IFR Très Intensif
Visi : 
Plafond : 
>= 8 km
>= 3000ft
5 à 8 km
1000 à 3000 ft
1500m à 5 km
500 à 1000 ft
800 à 1500m
200 à 500 ft
< 800m
< 200 ft
Symboles :   Orages  Brouillard  Fortes neiges  Fortes précipitations  Vent > 20 kt
SIGMETs :   Divers  Orages  Givrage  Turbulence  Onde Orograph.  Cendres Volcan.







- Altitude de l'aérodrome : 1058 ft
- Code IATA : SCN


EDDR - Saarbrücken

DERNIER METAR :
  • 191750Z 07013KT 9000 -SNRA FEW007 BKN011 BKN030 01/M00 Q1008 NOSIG

METARs EXPIRÉS :
  • 191720Z 06013G23KT 8000 -SNRA FEW006 BKN011 BKN030 01/M00 Q1008 TEMPO 04015G25KT 4000
  • 191650Z 05013G23KT 9999 -SNRA FEW010 BKN013 BKN040 02/M00 Q1008 TEMPO 04015G25KT BKN015
  • 191620Z 06011KT 030V090 9999 -RA FEW010 BKN013 BKN040 02/M00 Q1008 TEMPO 04015G25KT BKN015
  • 191550Z 06013KT 9999 FEW012 BKN016 BKN040 02/M01 Q1008 TEMPO 04015G25KT
  • 191520Z 06013KT 030V090 9999 FEW012 BKN016 BKN038 02/M01 Q1009 TEMPO 04015G25KT

TAF TAF EDDR
Valide du 19 à 18h jusqu'au 20 à 18h UTC


191700Z 1918/2018 06012KT 9999 BKN035
TEMPO 1918/1921 3000 -SHSN BKN012TCU
TEMPO 1918/2012 06015G25KT
Pas de NOTAMs connus pour ce terrain.



MET'MAP, la Météo Aéronautique d'un coup d'oeil ! - Copyright ORBIFLY Décembre 2007 - Disclaimer

ORBIFLY MET'MAP TEAM :

Programmation & Développement : Alexandra Zaïnal
Conception & Développement : Baudouin d'Aumeries
Co-Programmation & Développement : Marc-Olivier Méhu
Soutien technique & logistique : Manuel Goepfert

Contact : metmap@orbifly.com




SOURCES & CREDITS :

   NOAA